RYR36AM LBSF-LHBP
Flight info
| Callsign | RYR36AM |
|---|---|
| Flight time | N/A |
| Altitude | 38000 |
| Route | OGOTA N133 LOMOS DCT OVDOT DCT TEGRI DCT KEZAL |
| Aircraft | B738/M-SDE2E3FGHIRWXY/LB1 |
Departure
| Time | 2026-04-27 15:51 |
|---|---|
| Airport | Sofia Airport (LBSF) |
Arrival
| Time | N/A |
|---|---|
| Airport | Budapest Liszt Ferenc International Airport (LHBP) |
| Time | Latitude | Longitude | Altitude | Speed | Heading |
|---|---|---|---|---|---|
| 2026-04-27 15:32 | 42.69029 | 23.41093 | 1752 ft | 0 kts | 161° |
| 2026-04-27 15:46 | 42.69028 | 23.41093 | 1752 ft | 1 kts | 161° |
| 2026-04-27 15:46 | 42.69008 | 23.41102 | 1748 ft | 5 kts | 162° |
| 2026-04-27 15:46 | 42.68964 | 23.41093 | 1747 ft | 8 kts | 223° |
| 2026-04-27 15:47 | 42.68936 | 23.41003 | 1747 ft | 12 kts | 252° |
| 2026-04-27 15:47 | 42.68909 | 23.40874 | 1750 ft | 16 kts | 269° |
| 2026-04-27 15:47 | 42.68941 | 23.40715 | 1751 ft | 19 kts | 287° |
| 2026-04-27 15:47 | 42.68985 | 23.40530 | 1752 ft | 22 kts | 287° |
| 2026-04-27 15:48 | 42.69033 | 23.40318 | 1744 ft | 25 kts | 287° |
| 2026-04-27 15:48 | 42.69084 | 23.40094 | 1749 ft | 25 kts | 287° |
| 2026-04-27 15:48 | 42.69120 | 23.39876 | 1746 ft | 23 kts | 286° |
| 2026-04-27 15:49 | 42.69241 | 23.39556 | 1743 ft | 18 kts | 4° |
| 2026-04-27 15:49 | 42.69363 | 23.39567 | 1751 ft | 17 kts | 4° |
| 2026-04-27 15:49 | 42.69481 | 23.39577 | 1752 ft | 17 kts | 4° |
| 2026-04-27 15:49 | 42.69594 | 23.39587 | 1744 ft | 16 kts | 3° |
| 2026-04-27 15:50 | 42.69703 | 23.39596 | 1752 ft | 15 kts | 3° |
| 2026-04-27 15:50 | 42.69769 | 23.39682 | 1745 ft | 16 kts | 91° |
| 2026-04-27 15:50 | 42.69754 | 23.39956 | 1755 ft | 58 kts | 94° |
| 2026-04-27 15:50 | 42.69703 | 23.40834 | 1751 ft | 126 kts | 95° |
| 2026-04-27 15:51 | 42.69617 | 23.42264 | 1890 ft | 166 kts | 96° |
| 2026-04-27 15:51 | 42.69530 | 23.43795 | 2739 ft | 161 kts | 94° |
| 2026-04-27 15:51 | 42.69434 | 23.45345 | 3542 ft | 167 kts | 94° |
| 2026-04-27 15:51 | 42.69343 | 23.46922 | 4376 ft | 169 kts | 94° |
| 2026-04-27 15:52 | 42.69381 | 23.48541 | 5068 ft | 177 kts | 70° |
| 2026-04-27 15:52 | 42.70215 | 23.49813 | 5535 ft | 196 kts | 22° |
| 2026-04-27 15:52 | 42.71577 | 23.50147 | 6128 ft | 207 kts | 4° |
| 2026-04-27 15:52 | 42.73099 | 23.50083 | 6334 ft | 231 kts | 351° |
| 2026-04-27 15:53 | 42.74756 | 23.49708 | 6715 ft | 248 kts | 348° |
| 2026-04-27 15:53 | 42.76521 | 23.49257 | 7065 ft | 269 kts | 348° |
| 2026-04-27 15:53 | 42.78388 | 23.48782 | 7869 ft | 274 kts | 347° |
| 2026-04-27 15:53 | 42.80255 | 23.48320 | 8904 ft | 272 kts | 347° |
| 2026-04-27 15:54 | 42.82123 | 23.47871 | 9827 ft | 274 kts | 347° |
| 2026-04-27 15:54 | 42.84021 | 23.47424 | 10529 ft | 284 kts | 347° |
| 2026-04-27 15:54 | 42.86063 | 23.46945 | 10750 ft | 311 kts | 348° |
| 2026-04-27 15:54 | 42.88248 | 23.46441 | 11289 ft | 324 kts | 348° |
| 2026-04-27 15:55 | 42.90492 | 23.45934 | 12022 ft | 329 kts | 349° |
| 2026-04-27 15:55 | 42.91996 | 23.45597 | 12554 ft | 332 kts | 349° |
| 2026-04-27 15:55 | 42.95067 | 23.44912 | 13606 ft | 337 kts | 350° |
| 2026-04-27 15:55 | 42.97396 | 23.44394 | 14358 ft | 341 kts | 350° |
| 2026-04-27 15:56 | 42.99754 | 23.43869 | 15034 ft | 345 kts | 349° |
| 2026-04-27 15:56 | 43.02141 | 23.43334 | 15738 ft | 350 kts | 349° |
| 2026-04-27 15:56 | 43.04557 | 23.42796 | 16478 ft | 353 kts | 349° |
| 2026-04-27 15:56 | 43.06998 | 23.42252 | 17157 ft | 358 kts | 349° |
| 2026-04-27 15:57 | 43.09472 | 23.41701 | 17833 ft | 363 kts | 349° |
| 2026-04-27 15:57 | 43.11976 | 23.41141 | 18494 ft | 367 kts | 349° |
| 2026-04-27 15:57 | 43.14511 | 23.40575 | 19072 ft | 371 kts | 348° |
| 2026-04-27 15:57 | 43.17071 | 23.40002 | 19666 ft | 374 kts | 348° |
| 2026-04-27 15:58 | 43.19655 | 23.39421 | 20227 ft | 378 kts | 348° |
| 2026-04-27 15:58 | 43.22226 | 23.38845 | 20784 ft | 382 kts | 348° |
| 2026-04-27 15:58 | 43.24896 | 23.38246 | 21358 ft | 386 kts | 348° |
| 2026-04-27 15:58 | 43.27524 | 23.37656 | 21916 ft | 390 kts | 348° |
| 2026-04-27 15:59 | 43.30211 | 23.37052 | 22471 ft | 393 kts | 347° |
| 2026-04-27 15:59 | 43.32961 | 23.36433 | 23020 ft | 397 kts | 347° |
| 2026-04-27 15:59 | 43.35660 | 23.35825 | 23556 ft | 401 kts | 347° |
| 2026-04-27 15:59 | 43.38459 | 23.35194 | 24045 ft | 404 kts | 347° |
| 2026-04-27 16:00 | 43.41202 | 23.34576 | 24532 ft | 405 kts | 347° |
| 2026-04-27 16:00 | 43.43079 | 23.34152 | 24872 ft | 406 kts | 347° |
| 2026-04-27 16:00 | 43.46784 | 23.33316 | 25498 ft | 408 kts | 347° |
| 2026-04-27 16:00 | 43.49594 | 23.32680 | 25974 ft | 410 kts | 347° |
| 2026-04-27 16:01 | 43.52412 | 23.32042 | 26428 ft | 412 kts | 347° |
| 2026-04-27 16:01 | 43.55247 | 23.31400 | 26871 ft | 414 kts | 347° |
| 2026-04-27 16:01 | 43.58093 | 23.30754 | 27307 ft | 416 kts | 347° |
| 2026-04-27 16:01 | 43.60955 | 23.30104 | 27721 ft | 418 kts | 347° |
| 2026-04-27 16:02 | 43.63831 | 23.29450 | 28132 ft | 420 kts | 347° |
| 2026-04-27 16:02 | 43.66720 | 23.28792 | 28529 ft | 422 kts | 347° |
| 2026-04-27 16:02 | 43.69628 | 23.28130 | 28891 ft | 425 kts | 347° |
| 2026-04-27 16:02 | 43.72557 | 23.27462 | 29253 ft | 428 kts | 347° |
| 2026-04-27 16:03 | 43.75498 | 23.26791 | 29606 ft | 430 kts | 347° |
| 2026-04-27 16:03 | 43.78462 | 23.26114 | 29968 ft | 432 kts | 347° |
| 2026-04-27 16:03 | 43.81430 | 23.25436 | 30302 ft | 434 kts | 347° |
| 2026-04-27 16:03 | 43.84402 | 23.24663 | 30581 ft | 434 kts | 342° |
| 2026-04-27 16:04 | 43.87326 | 23.23610 | 30876 ft | 435 kts | 341° |
| 2026-04-27 16:04 | 43.90247 | 23.22476 | 31186 ft | 435 kts | 340° |
| 2026-04-27 16:04 | 43.93154 | 23.21323 | 31583 ft | 434 kts | 340° |
| 2026-04-27 16:04 | 43.96050 | 23.20177 | 32037 ft | 431 kts | 340° |
| 2026-04-27 16:05 | 43.98923 | 23.19049 | 32487 ft | 428 kts | 340° |
| 2026-04-27 16:05 | 44.01792 | 23.17933 | 32880 ft | 427 kts | 340° |
| 2026-04-27 16:05 | 44.04650 | 23.16826 | 33233 ft | 427 kts | 340° |
| 2026-04-27 16:05 | 44.07510 | 23.15722 | 33571 ft | 426 kts | 340° |
| 2026-04-27 16:06 | 44.10364 | 23.14621 | 33977 ft | 424 kts | 341° |
| 2026-04-27 16:06 | 44.13205 | 23.13525 | 34356 ft | 422 kts | 341° |
| 2026-04-27 16:06 | 44.16030 | 23.12434 | 34633 ft | 422 kts | 341° |
| 2026-04-27 16:06 | 44.18861 | 23.11339 | 34854 ft | 423 kts | 341° |
| 2026-04-27 16:07 | 44.21702 | 23.10238 | 35069 ft | 424 kts | 341° |
| 2026-04-27 16:07 | 44.24470 | 23.08867 | 35314 ft | 420 kts | 332° |
| 2026-04-27 16:07 | 44.26989 | 23.06873 | 35594 ft | 416 kts | 323° |
| 2026-04-27 16:07 | 44.29381 | 23.04603 | 35850 ft | 415 kts | 323° |
| 2026-04-27 16:08 | 44.31729 | 23.02346 | 36064 ft | 416 kts | 323° |
| 2026-04-27 16:08 | 44.34142 | 23.00022 | 36308 ft | 416 kts | 323° |
| 2026-04-27 16:08 | 44.36494 | 22.97764 | 36555 ft | 416 kts | 323° |
| 2026-04-27 16:08 | 44.38910 | 22.95453 | 36800 ft | 415 kts | 323° |
| 2026-04-27 16:09 | 44.41265 | 22.93208 | 37023 ft | 416 kts | 323° |
| 2026-04-27 16:09 | 44.46057 | 22.88648 | 37415 ft | 417 kts | 323° |
| 2026-04-27 16:09 | 44.48452 | 22.86370 | 37625 ft | 417 kts | 324° |
| 2026-04-27 16:10 | 44.53242 | 22.81808 | 38067 ft | 416 kts | 324° |
| 2026-04-27 16:10 | 44.58057 | 22.77212 | 38154 ft | 420 kts | 324° |
| 2026-04-27 16:11 | 44.64482 | 22.71067 | 38149 ft | 415 kts | 324° |
| 2026-04-27 16:12 | 44.71605 | 22.64232 | 38165 ft | 416 kts | 324° |
| 2026-04-27 16:13 | 44.78769 | 22.57336 | 38150 ft | 416 kts | 324° |
| 2026-04-27 16:13 | 44.85916 | 22.50437 | 38147 ft | 414 kts | 324° |
| 2026-04-27 16:14 | 44.95386 | 22.41261 | 38154 ft | 412 kts | 324° |
| 2026-04-27 16:15 | 45.04823 | 22.32081 | 38147 ft | 411 kts | 324° |
| 2026-04-27 16:16 | 45.14286 | 22.22837 | 38144 ft | 415 kts | 324° |
| 2026-04-27 16:17 | 45.23787 | 22.13519 | 38139 ft | 413 kts | 324° |
| 2026-04-27 16:18 | 45.33224 | 22.04224 | 38141 ft | 414 kts | 323° |
| 2026-04-27 16:19 | 45.35945 | 22.01536 | 38148 ft | 414 kts | 323° |